sensor_id;sensor_type;location;lat;lon;timestamp;temperature;humidity
18101;DHT22;9177;49.156;8.142;2023-03-11T00:00:52;19.80;91.30
18101;DHT22;9177;49.156;8.142;2023-03-11T00:03:20;19.80;91.30
18101;DHT22;9177;49.156;8.142;2023-03-11T00:05:50;19.80;91.30
18101;DHT22;9177;49.156;8.142;2023-03-11T00:08:21;19.80;91.20
18101;DHT22;9177;49.156;8.142;2023-03-11T00:10:51;19.80;91.20
18101;DHT22;9177;49.156;8.142;2023-03-11T00:13:19;19.80;91.10
18101;DHT22;9177;49.156;8.142;2023-03-11T00:15:49;19.70;91.10
18101;DHT22;9177;49.156;8.142;2023-03-11T00:18:16;19.70;91.10
18101;DHT22;9177;49.156;8.142;2023-03-11T00:20:45;19.70;91.00
18101;DHT22;9177;49.156;8.142;2023-03-11T00:23:13;19.70;90.90
18101;DHT22;9177;49.156;8.142;2023-03-11T00:25:42;19.70;90.90
18101;DHT22;9177;49.156;8.142;2023-03-11T00:28:10;19.70;90.80
18101;DHT22;9177;49.156;8.142;2023-03-11T00:30:40;19.70;91.20
18101;DHT22;9177;49.156;8.142;2023-03-11T00:33:07;19.70;90.80
18101;DHT22;9177;49.156;8.142;2023-03-11T00:35:35;19.70;90.70
18101;DHT22;9177;49.156;8.142;2023-03-11T00:38:04;19.70;90.70
18101;DHT22;9177;49.156;8.142;2023-03-11T00:40:33;19.70;90.80
18101;DHT22;9177;49.156;8.142;2023-03-11T00:43:01;19.70;90.70
18101;DHT22;9177;49.156;8.142;2023-03-11T00:45:28;19.70;90.70
18101;DHT22;9177;49.156;8.142;2023-03-11T00:47:56;19.70;90.60
18101;DHT22;9177;49.156;8.142;2023-03-11T00:50:25;19.70;90.60
18101;DHT22;9177;49.156;8.142;2023-03-11T00:52:55;19.60;90.50
18101;DHT22;9177;49.156;8.142;2023-03-11T00:55:24;19.60;90.50
18101;DHT22;9177;49.156;8.142;2023-03-11T00:57:52;19.60;90.40
18101;DHT22;9177;49.156;8.142;2023-03-11T01:00:21;19.60;90.40
18101;DHT22;9177;49.156;8.142;2023-03-11T01:02:48;19.60;90.30
18101;DHT22;9177;49.156;8.142;2023-03-11T01:05:18;19.60;90.30
18101;DHT22;9177;49.156;8.142;2023-03-11T01:07:44;19.60;90.30
18101;DHT22;9177;49.156;8.142;2023-03-11T01:10:12;19.60;90.30
18101;DHT22;9177;49.156;8.142;2023-03-11T01:12:39;19.60;90.30
18101;DHT22;9177;49.156;8.142;2023-03-11T01:15:07;19.50;90.20
18101;DHT22;9177;49.156;8.142;2023-03-11T01:17:34;19.50;90.30
18101;DHT22;9177;49.156;8.142;2023-03-11T01:20:01;19.50;90.20
18101;DHT22;9177;49.156;8.142;2023-03-11T01:22:31;19.50;90.10
18101;DHT22;9177;49.156;8.142;2023-03-11T01:24:58;19.50;90.10
18101;DHT22;9177;49.156;8.142;2023-03-11T01:27:25;19.50;90.10
18101;DHT22;9177;49.156;8.142;2023-03-11T01:29:53;19.50;90.00
18101;DHT22;9177;49.156;8.142;2023-03-11T01:32:20;19.50;89.90
18101;DHT22;9177;49.156;8.142;2023-03-11T01:34:47;19.50;89.80
18101;DHT22;9177;49.156;8.142;2023-03-11T01:37:14;19.50;89.80
18101;DHT22;9177;49.156;8.142;2023-03-11T01:39:42;19.50;89.80
18101;DHT22;9177;49.156;8.142;2023-03-11T01:42:08;19.50;89.70
18101;DHT22;9177;49.156;8.142;2023-03-11T01:44:35;19.50;89.60
18101;DHT22;9177;49.156;8.142;2023-03-11T01:47:38;19.50;89.60
18101;DHT22;9177;49.156;8.142;2023-03-11T01:50:09;19.50;89.50
18101;DHT22;9177;49.156;8.142;2023-03-11T01:52:39;19.50;89.30
18101;DHT22;9177;49.156;8.142;2023-03-11T01:55:12;19.50;89.30
18101;DHT22;9177;49.156;8.142;2023-03-11T01:57:41;19.50;90.00
18101;DHT22;9177;49.156;8.142;2023-03-11T02:00:11;19.50;89.20
18101;DHT22;9177;49.156;8.142;2023-03-11T02:02:41;19.50;89.00
18101;DHT22;9177;49.156;8.142;2023-03-11T02:05:09;19.50;88.80
18101;DHT22;9177;49.156;8.142;2023-03-11T02:07:37;19.40;88.90
18101;DHT22;9177;49.156;8.142;2023-03-11T02:10:05;19.40;88.80
18101;DHT22;9177;49.156;8.142;2023-03-11T02:12:34;19.40;88.80
18101;DHT22;9177;49.156;8.142;2023-03-11T02:15:03;19.40;88.60
18101;DHT22;9177;49.156;8.142;2023-03-11T02:17:31;19.40;88.60
18101;DHT22;9177;49.156;8.142;2023-03-11T02:20:15;19.40;88.60
18101;DHT22;9177;49.156;8.142;2023-03-11T02:22:44;19.40;88.50
18101;DHT22;9177;49.156;8.142;2023-03-11T02:25:26;19.40;88.50
18101;DHT22;9177;49.156;8.142;2023-03-11T02:27:56;19.40;88.40
18101;DHT22;9177;49.156;8.142;2023-03-11T02:30:25;19.40;88.40
18101;DHT22;9177;49.156;8.142;2023-03-11T02:32:53;19.40;88.40
18101;DHT22;9177;49.156;8.142;2023-03-11T02:35:21;19.30;88.20
18101;DHT22;9177;49.156;8.142;2023-03-11T02:37:50;19.30;88.10
18101;DHT22;9177;49.156;8.142;2023-03-11T02:40:49;19.30;87.90
18101;DHT22;9177;49.156;8.142;2023-03-11T02:43:21;19.40;88.10
18101;DHT22;9177;49.156;8.142;2023-03-11T02:45:49;19.40;87.90
18101;DHT22;9177;49.156;8.142;2023-03-11T02:48:17;19.40;87.90
18101;DHT22;9177;49.156;8.142;2023-03-11T02:50:45;19.30;87.80
18101;DHT22;9177;49.156;8.142;2023-03-11T02:53:13;19.30;87.70
18101;DHT22;9177;49.156;8.142;2023-03-11T02:55:40;19.40;87.70
18101;DHT22;9177;49.156;8.142;2023-03-11T02:58:07;19.30;87.70
18101;DHT22;9177;49.156;8.142;2023-03-11T03:00:38;19.30;87.70
18101;DHT22;9177;49.156;8.142;2023-03-11T03:03:05;19.30;87.80
18101;DHT22;9177;49.156;8.142;2023-03-11T03:05:33;19.30;87.70
18101;DHT22;9177;49.156;8.142;2023-03-11T03:08:00;19.30;87.70
18101;DHT22;9177;49.156;8.142;2023-03-11T03:10:27;19.30;87.70
18101;DHT22;9177;49.156;8.142;2023-03-11T03:12:57;19.30;87.60
18101;DHT22;9177;49.156;8.142;2023-03-11T03:15:24;19.30;87.60
18101;DHT22;9177;49.156;8.142;2023-03-11T03:17:54;19.30;87.50
18101;DHT22;9177;49.156;8.142;2023-03-11T03:20:21;19.30;87.50
18101;DHT22;9177;49.156;8.142;2023-03-11T03:22:48;19.30;87.50
18101;DHT22;9177;49.156;8.142;2023-03-11T03:25:15;19.30;87.50
18101;DHT22;9177;49.156;8.142;2023-03-11T03:27:42;19.30;87.40
18101;DHT22;9177;49.156;8.142;2023-03-11T03:30:10;19.30;87.40
18101;DHT22;9177;49.156;8.142;2023-03-11T03:32:37;19.30;87.40
18101;DHT22;9177;49.156;8.142;2023-03-11T03:35:07;19.20;87.20
18101;DHT22;9177;49.156;8.142;2023-03-11T03:37:35;19.30;87.20
18101;DHT22;9177;49.156;8.142;2023-03-11T03:40:04;19.20;87.10
18101;DHT22;9177;49.156;8.142;2023-03-11T03:42:33;19.20;87.20
18101;DHT22;9177;49.156;8.142;2023-03-11T03:45:00;19.20;87.00
18101;DHT22;9177;49.156;8.142;2023-03-11T03:47:27;19.30;86.90
18101;DHT22;9177;49.156;8.142;2023-03-11T03:49:54;19.30;86.90
18101;DHT22;9177;49.156;8.142;2023-03-11T03:52:22;19.20;86.80
18101;DHT22;9177;49.156;8.142;2023-03-11T03:54:49;19.20;86.90
18101;DHT22;9177;49.156;8.142;2023-03-11T03:57:16;19.20;86.90
18101;DHT22;9177;49.156;8.142;2023-03-11T03:59:43;19.20;86.80
18101;DHT22;9177;49.156;8.142;2023-03-11T04:02:10;19.20;86.70
18101;DHT22;9177;49.156;8.142;2023-03-11T04:04:37;19.20;86.70
18101;DHT22;9177;49.156;8.142;2023-03-11T04:07:08;19.20;86.60
18101;DHT22;9177;49.156;8.142;2023-03-11T04:09:39;19.20;86.50
18101;DHT22;9177;49.156;8.142;2023-03-11T04:12:10;19.20;86.60
18101;DHT22;9177;49.156;8.142;2023-03-11T04:14:38;19.20;86.40
18101;DHT22;9177;49.156;8.142;2023-03-11T04:17:05;19.30;86.40
18101;DHT22;9177;49.156;8.142;2023-03-11T04:19:32;19.30;86.30
18101;DHT22;9177;49.156;8.142;2023-03-11T04:21:59;19.30;86.00
18101;DHT22;9177;49.156;8.142;2023-03-11T04:24:26;19.30;86.00
18101;DHT22;9177;49.156;8.142;2023-03-11T04:26:54;19.30;85.80
18101;DHT22;9177;49.156;8.142;2023-03-11T04:29:21;19.30;85.70
18101;DHT22;9177;49.156;8.142;2023-03-11T04:31:48;19.30;85.60
18101;DHT22;9177;49.156;8.142;2023-03-11T04:34:15;19.30;85.50
18101;DHT22;9177;49.156;8.142;2023-03-11T04:36:41;19.30;85.50
18101;DHT22;9177;49.156;8.142;2023-03-11T04:39:08;19.30;85.70
18101;DHT22;9177;49.156;8.142;2023-03-11T04:41:35;19.30;85.70
18101;DHT22;9177;49.156;8.142;2023-03-11T04:44:04;19.30;85.80
18101;DHT22;9177;49.156;8.142;2023-03-11T04:46:30;19.30;85.80
18101;DHT22;9177;49.156;8.142;2023-03-11T04:48:57;19.30;85.70
18101;DHT22;9177;49.156;8.142;2023-03-11T04:51:24;19.20;85.80
18101;DHT22;9177;49.156;8.142;2023-03-11T04:53:51;19.20;85.70
18101;DHT22;9177;49.156;8.142;2023-03-11T04:56:18;19.20;85.70
18101;DHT22;9177;49.156;8.142;2023-03-11T04:58:45;19.20;85.70
18101;DHT22;9177;49.156;8.142;2023-03-11T05:01:13;19.20;85.80
18101;DHT22;9177;49.156;8.142;2023-03-11T05:03:39;19.20;85.70
18101;DHT22;9177;49.156;8.142;2023-03-11T05:06:07;19.20;85.70
18101;DHT22;9177;49.156;8.142;2023-03-11T05:08:33;19.20;85.70
18101;DHT22;9177;49.156;8.142;2023-03-11T05:11:00;19.20;85.50
18101;DHT22;9177;49.156;8.142;2023-03-11T05:13:27;19.20;85.50
18101;DHT22;9177;49.156;8.142;2023-03-11T05:15:54;19.20;85.30
18101;DHT22;9177;49.156;8.142;2023-03-11T05:18:23;19.20;85.40
18101;DHT22;9177;49.156;8.142;2023-03-11T05:20:49;19.20;85.30
18101;DHT22;9177;49.156;8.142;2023-03-11T05:23:18;19.20;85.30
18101;DHT22;9177;49.156;8.142;2023-03-11T05:25:45;19.20;85.20
18101;DHT22;9177;49.156;8.142;2023-03-11T05:28:12;19.20;85.20
18101;DHT22;9177;49.156;8.142;2023-03-11T05:30:39;19.20;85.20
18101;DHT22;9177;49.156;8.142;2023-03-11T05:33:06;19.20;85.20
18101;DHT22;9177;49.156;8.142;2023-03-11T05:35:34;19.20;85.20
18101;DHT22;9177;49.156;8.142;2023-03-11T05:38:01;19.20;85.00
18101;DHT22;9177;49.156;8.142;2023-03-11T05:40:28;19.30;85.00
18101;DHT22;9177;49.156;8.142;2023-03-11T05:42:55;19.30;85.00
18101;DHT22;9177;49.156;8.142;2023-03-11T05:45:21;19.20;85.00
18101;DHT22;9177;49.156;8.142;2023-03-11T05:47:50;19.20;85.00
18101;DHT22;9177;49.156;8.142;2023-03-11T05:50:17;19.20;85.10
18101;DHT22;9177;49.156;8.142;2023-03-11T05:52:45;19.20;85.00
18101;DHT22;9177;49.156;8.142;2023-03-11T05:55:12;19.20;84.90
18101;DHT22;9177;49.156;8.142;2023-03-11T05:57:39;19.20;84.80
18101;DHT22;9177;49.156;8.142;2023-03-11T06:00:08;19.20;84.70
18101;DHT22;9177;49.156;8.142;2023-03-11T06:02:37;19.30;84.70
18101;DHT22;9177;49.156;8.142;2023-03-11T06:05:05;19.30;84.50
18101;DHT22;9177;49.156;8.142;2023-03-11T06:07:33;19.30;84.50
18101;DHT22;9177;49.156;8.142;2023-03-11T06:10:02;19.30;84.50
18101;DHT22;9177;49.156;8.142;2023-03-11T06:12:29;19.30;84.40
18101;DHT22;9177;49.156;8.142;2023-03-11T06:14:56;19.30;84.30
18101;DHT22;9177;49.156;8.142;2023-03-11T06:17:23;19.30;84.40
18101;DHT22;9177;49.156;8.142;2023-03-11T06:19:50;19.30;84.30
18101;DHT22;9177;49.156;8.142;2023-03-11T06:22:17;19.30;84.40
18101;DHT22;9177;49.156;8.142;2023-03-11T06:24:44;19.30;84.40
18101;DHT22;9177;49.156;8.142;2023-03-11T06:27:12;19.30;84.60
18101;DHT22;9177;49.156;8.142;2023-03-11T06:29:39;19.20;84.50
18101;DHT22;9177;49.156;8.142;2023-03-11T06:32:06;19.20;84.50
18101;DHT22;9177;49.156;8.142;2023-03-11T06:34:32;19.20;84.60
18101;DHT22;9177;49.156;8.142;2023-03-11T06:36:59;19.20;84.50
18101;DHT22;9177;49.156;8.142;2023-03-11T06:39:26;19.20;84.50
18101;DHT22;9177;49.156;8.142;2023-03-11T06:41:53;19.20;84.40
18101;DHT22;9177;49.156;8.142;2023-03-11T06:44:21;19.20;84.40
18101;DHT22;9177;49.156;8.142;2023-03-11T06:46:48;19.20;84.40
18101;DHT22;9177;49.156;8.142;2023-03-11T06:49:15;19.20;84.40
18101;DHT22;9177;49.156;8.142;2023-03-11T06:51:44;19.20;85.20
18101;DHT22;9177;49.156;8.142;2023-03-11T06:54:11;19.20;84.30
18101;DHT22;9177;49.156;8.142;2023-03-11T06:56:40;19.20;84.40
18101;DHT22;9177;49.156;8.142;2023-03-11T06:59:13;19.20;84.40
18101;DHT22;9177;49.156;8.142;2023-03-11T07:01:42;19.20;84.30
18101;DHT22;9177;49.156;8.142;2023-03-11T07:04:09;19.20;84.40
18101;DHT22;9177;49.156;8.142;2023-03-11T07:06:36;19.10;84.50
18101;DHT22;9177;49.156;8.142;2023-03-11T07:09:03;19.20;84.50
18101;DHT22;9177;49.156;8.142;2023-03-11T07:11:30;19.20;84.50
18101;DHT22;9177;49.156;8.142;2023-03-11T07:13:57;19.20;84.30
18101;DHT22;9177;49.156;8.142;2023-03-11T07:16:26;19.20;84.10
18101;DHT22;9177;49.156;8.142;2023-03-11T07:18:56;19.30;84.10
18101;DHT22;9177;49.156;8.142;2023-03-11T07:21:26;19.30;84.10
18101;DHT22;9177;49.156;8.142;2023-03-11T07:23:54;19.30;84.10
18101;DHT22;9177;49.156;8.142;2023-03-11T07:26:22;19.30;83.90
18101;DHT22;9177;49.156;8.142;2023-03-11T07:28:53;19.30;84.00
18101;DHT22;9177;49.156;8.142;2023-03-11T07:31:22;19.30;84.00
18101;DHT22;9177;49.156;8.142;2023-03-11T07:33:49;19.30;84.10
18101;DHT22;9177;49.156;8.142;2023-03-11T07:36:19;19.30;84.40
18101;DHT22;9177;49.156;8.142;2023-03-11T07:38:47;19.40;84.50
18101;DHT22;9177;49.156;8.142;2023-03-11T07:41:14;19.40;84.50
18101;DHT22;9177;49.156;8.142;2023-03-11T07:43:42;19.40;84.50
18101;DHT22;9177;49.156;8.142;2023-03-11T07:46:11;19.40;84.60
18101;DHT22;9177;49.156;8.142;2023-03-11T07:48:39;19.50;84.50
18101;DHT22;9177;49.156;8.142;2023-03-11T07:51:09;19.50;84.50
18101;DHT22;9177;49.156;8.142;2023-03-11T07:53:38;19.50;84.50
18101;DHT22;9177;49.156;8.142;2023-03-11T07:56:06;19.50;84.40
18101;DHT22;9177;49.156;8.142;2023-03-11T07:58:33;19.50;84.30
18101;DHT22;9177;49.156;8.142;2023-03-11T08:01:03;19.50;84.30
18101;DHT22;9177;49.156;8.142;2023-03-11T08:03:31;19.60;84.30
18101;DHT22;9177;49.156;8.142;2023-03-11T08:05:58;19.60;84.30
18101;DHT22;9177;49.156;8.142;2023-03-11T08:08:25;19.60;84.20
18101;DHT22;9177;49.156;8.142;2023-03-11T08:10:56;19.60;84.20
18101;DHT22;9177;49.156;8.142;2023-03-11T08:13:23;19.60;84.30
18101;DHT22;9177;49.156;8.142;2023-03-11T08:15:50;19.70;84.20
18101;DHT22;9177;49.156;8.142;2023-03-11T08:18:17;19.70;84.10
18101;DHT22;9177;49.156;8.142;2023-03-11T08:20:44;19.70;84.10
18101;DHT22;9177;49.156;8.142;2023-03-11T08:23:11;19.70;84.10
18101;DHT22;9177;49.156;8.142;2023-03-11T08:25:38;19.70;84.10
18101;DHT22;9177;49.156;8.142;2023-03-11T08:28:07;19.70;84.00
18101;DHT22;9177;49.156;8.142;2023-03-11T08:30:35;19.70;84.00
18101;DHT22;9177;49.156;8.142;2023-03-11T08:33:02;19.70;83.90
18101;DHT22;9177;49.156;8.142;2023-03-11T08:35:30;19.70;83.80
18101;DHT22;9177;49.156;8.142;2023-03-11T08:37:57;19.70;83.80
18101;DHT22;9177;49.156;8.142;2023-03-11T08:40:23;19.80;83.80
18101;DHT22;9177;49.156;8.142;2023-03-11T08:42:57;19.80;83.80
18101;DHT22;9177;49.156;8.142;2023-03-11T08:45:25;19.80;83.70
18101;DHT22;9177;49.156;8.142;2023-03-11T08:47:52;19.80;83.60
18101;DHT22;9177;49.156;8.142;2023-03-11T08:50:19;19.80;83.60
18101;DHT22;9177;49.156;8.142;2023-03-11T08:52:46;19.80;83.50
18101;DHT22;9177;49.156;8.142;2023-03-11T08:55:15;19.80;83.50
18101;DHT22;9177;49.156;8.142;2023-03-11T08:57:48;19.90;83.60
18101;DHT22;9177;49.156;8.142;2023-03-11T09:00:16;19.90;83.50
18101;DHT22;9177;49.156;8.142;2023-03-11T09:02:47;19.90;83.50
18101;DHT22;9177;49.156;8.142;2023-03-11T09:05:14;19.90;83.50
18101;DHT22;9177;49.156;8.142;2023-03-11T09:07:41;19.90;83.40
18101;DHT22;9177;49.156;8.142;2023-03-11T09:10:10;19.90;83.30
18101;DHT22;9177;49.156;8.142;2023-03-11T09:12:38;19.90;83.30
18101;DHT22;9177;49.156;8.142;2023-03-11T09:15:06;19.90;83.30
18101;DHT22;9177;49.156;8.142;2023-03-11T09:17:33;20.00;83.30
18101;DHT22;9177;49.156;8.142;2023-03-11T09:20:02;20.00;83.30
18101;DHT22;9177;49.156;8.142;2023-03-11T09:22:29;20.00;83.20
18101;DHT22;9177;49.156;8.142;2023-03-11T09:24:56;20.00;83.20
18101;DHT22;9177;49.156;8.142;2023-03-11T09:27:24;20.00;83.30
18101;DHT22;9177;49.156;8.142;2023-03-11T09:29:50;20.00;83.30
18101;DHT22;9177;49.156;8.142;2023-03-11T09:32:17;20.00;83.20
18101;DHT22;9177;49.156;8.142;2023-03-11T09:34:44;20.00;83.20
18101;DHT22;9177;49.156;8.142;2023-03-11T09:37:12;20.00;83.10
18101;DHT22;9177;49.156;8.142;2023-03-11T09:39:39;20.10;83.10
18101;DHT22;9177;49.156;8.142;2023-03-11T09:42:14;20.10;82.90
18101;DHT22;9177;49.156;8.142;2023-03-11T09:44:50;20.10;82.90
18101;DHT22;9177;49.156;8.142;2023-03-11T09:47:35;20.10;82.80
18101;DHT22;9177;49.156;8.142;2023-03-11T09:50:27;20.10;83.00
18101;DHT22;9177;49.156;8.142;2023-03-11T09:53:02;20.20;83.00
18101;DHT22;9177;49.156;8.142;2023-03-11T09:55:36;20.10;84.50
18101;DHT22;9177;49.156;8.142;2023-03-11T09:58:11;20.10;84.80
18101;DHT22;9177;49.156;8.142;2023-03-11T10:00:39;20.20;84.40
18101;DHT22;9177;49.156;8.142;2023-03-11T10:03:11;20.20;83.70
18101;DHT22;9177;49.156;8.142;2023-03-11T10:05:41;20.30;83.60
18101;DHT22;9177;49.156;8.142;2023-03-11T10:08:29;20.30;83.50
18101;DHT22;9177;49.156;8.142;2023-03-11T10:11:08;20.20;83.10
18101;DHT22;9177;49.156;8.142;2023-03-11T10:13:39;20.20;82.60
18101;DHT22;9177;49.156;8.142;2023-03-11T10:16:14;20.20;81.90
18101;DHT22;9177;49.156;8.142;2023-03-11T10:18:51;20.10;82.00
18101;DHT22;9177;49.156;8.142;2023-03-11T10:21:30;20.00;81.40
18101;DHT22;9177;49.156;8.142;2023-03-11T10:24:12;20.00;81.60
18101;DHT22;9177;49.156;8.142;2023-03-11T10:26:42;20.00;81.90
18101;DHT22;9177;49.156;8.142;2023-03-11T10:29:16;20.00;82.30
18101;DHT22;9177;49.156;8.142;2023-03-11T10:31:49;20.00;82.90
18101;DHT22;9177;49.156;8.142;2023-03-11T10:34:26;20.00;83.60
18101;DHT22;9177;49.156;8.142;2023-03-11T10:37:01;19.90;83.30
18101;DHT22;9177;49.156;8.142;2023-03-11T10:39:31;19.90;83.30
18101;DHT22;9177;49.156;8.142;2023-03-11T10:42:00;19.90;82.50
18101;DHT22;9177;49.156;8.142;2023-03-11T10:44:31;19.90;80.70
18101;DHT22;9177;49.156;8.142;2023-03-11T10:46:59;19.90;81.20
18101;DHT22;9177;49.156;8.142;2023-03-11T10:49:27;20.00;80.50
18101;DHT22;9177;49.156;8.142;2023-03-11T10:51:55;20.10;82.10
18101;DHT22;9177;49.156;8.142;2023-03-11T10:54:25;20.10;80.20
18101;DHT22;9177;49.156;8.142;2023-03-11T10:56:58;20.10;80.60
18101;DHT22;9177;49.156;8.142;2023-03-11T10:59:28;20.10;80.50
18101;DHT22;9177;49.156;8.142;2023-03-11T11:01:58;20.10;80.30
18101;DHT22;9177;49.156;8.142;2023-03-11T11:04:29;20.10;78.80
18101;DHT22;9177;49.156;8.142;2023-03-11T11:06:57;20.10;78.00
18101;DHT22;9177;49.156;8.142;2023-03-11T11:09:25;20.20;78.30
18101;DHT22;9177;49.156;8.142;2023-03-11T11:12:08;20.20;76.70
18101;DHT22;9177;49.156;8.142;2023-03-11T11:14:42;20.30;76.20
18101;DHT22;9177;49.156;8.142;2023-03-11T11:17:16;20.30;75.80
18101;DHT22;9177;49.156;8.142;2023-03-11T11:19:44;20.40;75.60
18101;DHT22;9177;49.156;8.142;2023-03-11T11:22:15;20.40;75.60
18101;DHT22;9177;49.156;8.142;2023-03-11T11:24:43;20.50;75.10
18101;DHT22;9177;49.156;8.142;2023-03-11T11:27:18;20.50;74.40
18101;DHT22;9177;49.156;8.142;2023-03-11T11:29:46;20.60;75.10
18101;DHT22;9177;49.156;8.142;2023-03-11T11:32:24;20.70;74.20
18101;DHT22;9177;49.156;8.142;2023-03-11T11:34:57;20.80;75.30
18101;DHT22;9177;49.156;8.142;2023-03-11T11:37:26;20.90;76.00
18101;DHT22;9177;49.156;8.142;2023-03-11T11:39:59;21.00;75.90
18101;DHT22;9177;49.156;8.142;2023-03-11T11:42:36;21.10;76.00
18101;DHT22;9177;49.156;8.142;2023-03-11T11:45:10;21.10;77.00
18101;DHT22;9177;49.156;8.142;2023-03-11T11:47:42;21.20;79.40
18101;DHT22;9177;49.156;8.142;2023-03-11T11:50:15;21.40;79.00
18101;DHT22;9177;49.156;8.142;2023-03-11T11:52:46;21.40;78.50
18101;DHT22;9177;49.156;8.142;2023-03-11T11:55:18;21.60;79.50
18101;DHT22;9177;49.156;8.142;2023-03-11T11:57:48;21.60;79.50
18101;DHT22;9177;49.156;8.142;2023-03-11T12:00:18;21.40;77.40
18101;DHT22;9177;49.156;8.142;2023-03-11T12:02:55;21.40;77.20
18101;DHT22;9177;49.156;8.142;2023-03-11T12:05:29;21.40;77.20
18101;DHT22;9177;49.156;8.142;2023-03-11T12:08:05;21.30;76.40
18101;DHT22;9177;49.156;8.142;2023-03-11T12:10:40;21.30;76.50
18101;DHT22;9177;49.156;8.142;2023-03-11T12:13:44;21.40;78.00
18101;DHT22;9177;49.156;8.142;2023-03-11T12:16:19;21.70;80.00
18101;DHT22;9177;49.156;8.142;2023-03-11T12:18:51;21.70;78.50
18101;DHT22;9177;49.156;8.142;2023-03-11T12:21:32;21.80;78.70
18101;DHT22;9177;49.156;8.142;2023-03-11T12:24:12;21.90;77.80
18101;DHT22;9177;49.156;8.142;2023-03-11T12:26:43;22.00;81.70
18101;DHT22;9177;49.156;8.142;2023-03-11T12:29:19;22.20;81.80
18101;DHT22;9177;49.156;8.142;2023-03-11T12:31:53;22.30;80.60
18101;DHT22;9177;49.156;8.142;2023-03-11T12:34:22;22.30;79.10
18101;DHT22;9177;49.156;8.142;2023-03-11T12:36:50;22.30;79.30
18101;DHT22;9177;49.156;8.142;2023-03-11T12:39:23;22.30;78.90
18101;DHT22;9177;49.156;8.142;2023-03-11T12:42:14;22.30;79.80
18101;DHT22;9177;49.156;8.142;2023-03-11T12:44:44;22.50;78.80
18101;DHT22;9177;49.156;8.142;2023-03-11T12:47:29;22.40;77.60
18101;DHT22;9177;49.156;8.142;2023-03-11T12:53:01;22.50;78.90
18101;DHT22;9177;49.156;8.142;2023-03-11T12:55:31;22.80;79.30
18101;DHT22;9177;49.156;8.142;2023-03-11T13:01:05;22.90;79.30
18101;DHT22;9177;49.156;8.142;2023-03-11T13:03:43;22.80;78.80
18101;DHT22;9177;49.156;8.142;2023-03-11T13:06:36;22.70;77.00
18101;DHT22;9177;49.156;8.142;2023-03-11T13:09:12;22.70;76.90
18101;DHT22;9177;49.156;8.142;2023-03-11T13:11:43;22.70;79.90
18101;DHT22;9177;49.156;8.142;2023-03-11T13:14:32;22.60;77.70
18101;DHT22;9177;49.156;8.142;2023-03-11T13:17:26;22.60;76.40
18101;DHT22;9177;49.156;8.142;2023-03-11T13:19:56;22.70;75.70
18101;DHT22;9177;49.156;8.142;2023-03-11T13:22:42;22.50;76.20
18101;DHT22;9177;49.156;8.142;2023-03-11T13:25:30;22.50;78.20
18101;DHT22;9177;49.156;8.142;2023-03-11T13:30:45;22.60;76.50
18101;DHT22;9177;49.156;8.142;2023-03-11T13:33:33;22.40;77.00
18101;DHT22;9177;49.156;8.142;2023-03-11T13:36:10;22.50;77.50
18101;DHT22;9177;49.156;8.142;2023-03-11T13:41:41;22.30;77.40
18101;DHT22;9177;49.156;8.142;2023-03-11T13:44:15;22.10;79.10
18101;DHT22;9177;49.156;8.142;2023-03-11T13:46:47;22.00;78.00
18101;DHT22;9177;49.156;8.142;2023-03-11T13:49:24;21.90;78.10
18101;DHT22;9177;49.156;8.142;2023-03-11T13:51:54;21.60;78.20
18101;DHT22;9177;49.156;8.142;2023-03-11T13:54:36;21.50;78.50
18101;DHT22;9177;49.156;8.142;2023-03-11T13:57:04;21.50;78.90
18101;DHT22;9177;49.156;8.142;2023-03-11T13:59:33;21.40;79.50
18101;DHT22;9177;49.156;8.142;2023-03-11T14:02:10;21.50;79.80
18101;DHT22;9177;49.156;8.142;2023-03-11T14:04:46;21.50;80.10
18101;DHT22;9177;49.156;8.142;2023-03-11T14:07:23;21.60;80.10
18101;DHT22;9177;49.156;8.142;2023-03-11T14:09:51;21.50;81.70
18101;DHT22;9177;49.156;8.142;2023-03-11T14:12:34;21.50;82.30
18101;DHT22;9177;49.156;8.142;2023-03-11T14:15:04;21.40;81.20
18101;DHT22;9177;49.156;8.142;2023-03-11T14:17:35;21.30;81.30
18101;DHT22;9177;49.156;8.142;2023-03-11T14:20:09;21.30;80.30
18101;DHT22;9177;49.156;8.142;2023-03-11T14:22:43;21.20;80.50
18101;DHT22;9177;49.156;8.142;2023-03-11T14:25:17;21.20;80.10
18101;DHT22;9177;49.156;8.142;2023-03-11T14:27:50;21.20;81.30
18101;DHT22;9177;49.156;8.142;2023-03-11T14:30:24;21.30;81.70
18101;DHT22;9177;49.156;8.142;2023-03-11T14:33:00;21.20;81.80
18101;DHT22;9177;49.156;8.142;2023-03-11T14:35:29;21.30;83.10
18101;DHT22;9177;49.156;8.142;2023-03-11T14:37:57;21.30;82.10
18101;DHT22;9177;49.156;8.142;2023-03-11T14:40:28;21.30;82.10
18101;DHT22;9177;49.156;8.142;2023-03-11T14:42:58;21.30;81.70
18101;DHT22;9177;49.156;8.142;2023-03-11T14:45:29;21.20;81.40
18101;DHT22;9177;49.156;8.142;2023-03-11T14:48:04;21.10;81.40
18101;DHT22;9177;49.156;8.142;2023-03-11T14:50:36;21.10;81.30
18101;DHT22;9177;49.156;8.142;2023-03-11T14:53:06;20.90;80.90
18101;DHT22;9177;49.156;8.142;2023-03-11T14:55:39;20.80;80.60
18101;DHT22;9177;49.156;8.142;2023-03-11T14:58:13;20.80;80.80
18101;DHT22;9177;49.156;8.142;2023-03-11T15:00:47;20.70;80.50
18101;DHT22;9177;49.156;8.142;2023-03-11T15:03:22;20.80;80.80
18101;DHT22;9177;49.156;8.142;2023-03-11T15:05:53;20.80;80.80
18101;DHT22;9177;49.156;8.142;2023-03-11T15:08:23;20.70;80.40
18101;DHT22;9177;49.156;8.142;2023-03-11T15:11:06;20.70;80.70
18101;DHT22;9177;49.156;8.142;2023-03-11T15:13:34;20.70;80.20
18101;DHT22;9177;49.156;8.142;2023-03-11T15:16:04;20.80;81.20
18101;DHT22;9177;49.156;8.142;2023-03-11T15:18:32;20.80;81.50
18101;DHT22;9177;49.156;8.142;2023-03-11T15:21:06;20.80;81.70
18101;DHT22;9177;49.156;8.142;2023-03-11T15:23:37;20.80;81.10
18101;DHT22;9177;49.156;8.142;2023-03-11T15:26:04;20.70;80.80
18101;DHT22;9177;49.156;8.142;2023-03-11T15:28:32;20.60;79.60
18101;DHT22;9177;49.156;8.142;2023-03-11T15:31:29;20.60;79.40
18101;DHT22;9177;49.156;8.142;2023-03-11T15:34:28;20.60;79.40
18101;DHT22;9177;49.156;8.142;2023-03-11T15:37:19;20.70;80.20
18101;DHT22;9177;49.156;8.142;2023-03-11T15:39:48;20.70;79.50
18101;DHT22;9177;49.156;8.142;2023-03-11T15:42:20;20.70;79.70
18101;DHT22;9177;49.156;8.142;2023-03-11T15:45:10;20.70;78.90
18101;DHT22;9177;49.156;8.142;2023-03-11T15:47:38;20.70;78.80
18101;DHT22;9177;49.156;8.142;2023-03-11T15:50:16;20.70;78.80
18101;DHT22;9177;49.156;8.142;2023-03-11T15:52:46;20.70;78.80
18101;DHT22;9177;49.156;8.142;2023-03-11T15:55:13;20.60;78.70
18101;DHT22;9177;49.156;8.142;2023-03-11T15:57:40;20.60;79.70
18101;DHT22;9177;49.156;8.142;2023-03-11T16:00:15;20.50;78.90
18101;DHT22;9177;49.156;8.142;2023-03-11T16:02:43;20.40;79.30
18101;DHT22;9177;49.156;8.142;2023-03-11T16:05:16;20.30;79.10
18101;DHT22;9177;49.156;8.142;2023-03-11T16:07:43;20.30;80.00
18101;DHT22;9177;49.156;8.142;2023-03-11T16:10:14;20.20;80.30
18101;DHT22;9177;49.156;8.142;2023-03-11T16:12:41;20.20;80.20
18101;DHT22;9177;49.156;8.142;2023-03-11T16:15:18;20.10;80.80
18101;DHT22;9177;49.156;8.142;2023-03-11T16:17:46;20.10;79.30